sensor_id;sensor_type;location;lat;lon;timestamp;P1;durP1;ratioP1;P2;durP2;ratioP2
31728;SDS011;18309;43.658;1.312;2023-02-08T00:21:06;22.60;;;6.25;;
31728;SDS011;18309;43.658;1.312;2023-02-08T00:23:32;20.17;;;4.50;;
31728;SDS011;18309;43.658;1.312;2023-02-08T00:25:58;20.85;;;4.72;;
31728;SDS011;18309;43.658;1.312;2023-02-08T00:28:24;24.52;;;5.68;;
31728;SDS011;18309;43.658;1.312;2023-02-08T00:30:49;22.00;;;4.70;;
31728;SDS011;18309;43.658;1.312;2023-02-08T00:33:15;25.75;;;5.32;;
31728;SDS011;18309;43.658;1.312;2023-02-08T00:35:41;25.45;;;5.57;;
31728;SDS011;18309;43.658;1.312;2023-02-08T00:38:06;22.67;;;6.57;;
31728;SDS011;18309;43.658;1.312;2023-02-08T00:40:32;20.67;;;5.72;;
31728;SDS011;18309;43.658;1.312;2023-02-08T00:42:58;23.13;;;5.18;;
31728;SDS011;18309;43.658;1.312;2023-02-08T00:45:23;30.17;;;5.93;;
31728;SDS011;18309;43.658;1.312;2023-02-08T00:47:49;22.67;;;5.25;;
31728;SDS011;18309;43.658;1.312;2023-02-08T00:50:15;23.20;;;6.38;;
31728;SDS011;18309;43.658;1.312;2023-02-08T00:52:40;18.98;;;5.93;;
31728;SDS011;18309;43.658;1.312;2023-02-08T00:55:06;19.52;;;5.20;;
31728;SDS011;18309;43.658;1.312;2023-02-08T00:57:32;17.35;;;4.45;;
31728;SDS011;18309;43.658;1.312;2023-02-08T00:59:59;21.70;;;5.75;;
31728;SDS011;18309;43.658;1.312;2023-02-08T01:02:24;15.90;;;5.18;;
31728;SDS011;18309;43.658;1.312;2023-02-08T01:04:50;24.40;;;6.30;;
31728;SDS011;18309;43.658;1.312;2023-02-08T01:07:16;22.05;;;4.97;;
31728;SDS011;18309;43.658;1.312;2023-02-08T01:09:42;28.25;;;4.88;;
31728;SDS011;18309;43.658;1.312;2023-02-08T01:12:08;15.73;;;4.60;;
31728;SDS011;18309;43.658;1.312;2023-02-08T01:14:33;19.95;;;4.20;;
31728;SDS011;18309;43.658;1.312;2023-02-08T01:17:02;16.20;;;4.22;;
31728;SDS011;18309;43.658;1.312;2023-02-08T01:19:28;16.98;;;4.38;;
31728;SDS011;18309;43.658;1.312;2023-02-08T01:21:54;18.60;;;4.97;;
31728;SDS011;18309;43.658;1.312;2023-02-08T01:24:20;23.08;;;4.57;;
31728;SDS011;18309;43.658;1.312;2023-02-08T01:26:46;17.48;;;4.28;;
31728;SDS011;18309;43.658;1.312;2023-02-08T01:29:12;20.88;;;4.10;;
31728;SDS011;18309;43.658;1.312;2023-02-08T01:31:39;18.15;;;3.88;;
31728;SDS011;18309;43.658;1.312;2023-02-08T01:34:06;21.77;;;4.43;;
31728;SDS011;18309;43.658;1.312;2023-02-08T01:36:33;24.23;;;4.13;;
31728;SDS011;18309;43.658;1.312;2023-02-08T01:38:59;17.25;;;4.47;;
31728;SDS011;18309;43.658;1.312;2023-02-08T01:41:28;21.75;;;4.28;;
31728;SDS011;18309;43.658;1.312;2023-02-08T01:44:06;17.77;;;4.32;;
31728;SDS011;18309;43.658;1.312;2023-02-08T01:46:33;17.40;;;4.32;;
31728;SDS011;18309;43.658;1.312;2023-02-08T01:49:09;20.33;;;4.35;;
31728;SDS011;18309;43.658;1.312;2023-02-08T01:54:31;24.40;;;5.20;;
31728;SDS011;18309;43.658;1.312;2023-02-08T01:57:07;19.30;;;4.28;;
31728;SDS011;18309;43.658;1.312;2023-02-08T01:59:42;16.20;;;4.18;;
31728;SDS011;18309;43.658;1.312;2023-02-08T02:02:13;20.15;;;5.07;;
31728;SDS011;18309;43.658;1.312;2023-02-08T02:04:42;15.70;;;5.05;;
31728;SDS011;18309;43.658;1.312;2023-02-08T02:07:08;22.67;;;4.63;;
31728;SDS011;18309;43.658;1.312;2023-02-08T02:09:37;16.77;;;4.20;;
31728;SDS011;18309;43.658;1.312;2023-02-08T02:12:09;18.73;;;3.90;;
31728;SDS011;18309;43.658;1.312;2023-02-08T02:14:36;16.00;;;4.35;;
31728;SDS011;18309;43.658;1.312;2023-02-08T02:17:03;19.52;;;4.50;;
31728;SDS011;18309;43.658;1.312;2023-02-08T02:30:49;13.57;;;4.28;;
31728;SDS011;18309;43.658;1.312;2023-02-08T02:52:44;22.23;;;4.03;;
31728;SDS011;18309;43.658;1.312;2023-02-08T02:55:15;22.67;;;5.88;;
31728;SDS011;18309;43.658;1.312;2023-02-08T02:57:45;18.27;;;4.68;;
31728;SDS011;18309;43.658;1.312;2023-02-08T03:00:20;19.20;;;5.18;;
31728;SDS011;18309;43.658;1.312;2023-02-08T03:02:48;16.10;;;5.03;;
31728;SDS011;18309;43.658;1.312;2023-02-08T03:05:13;14.23;;;4.60;;
31728;SDS011;18309;43.658;1.312;2023-02-08T03:10:32;19.73;;;5.07;;
31728;SDS011;18309;43.658;1.312;2023-02-08T03:13:13;16.95;;;4.20;;
31728;SDS011;18309;43.658;1.312;2023-02-08T03:19:04;15.82;;;4.25;;
31728;SDS011;18309;43.658;1.312;2023-02-08T03:34:52;19.00;;;4.97;;
31728;SDS011;18309;43.658;1.312;2023-02-08T03:37:20;12.25;;;4.63;;
31728;SDS011;18309;43.658;1.312;2023-02-08T03:39:58;21.92;;;4.55;;
31728;SDS011;18309;43.658;1.312;2023-02-08T03:42:28;12.52;;;4.00;;
31728;SDS011;18309;43.658;1.312;2023-02-08T03:44:57;13.35;;;4.80;;
31728;SDS011;18309;43.658;1.312;2023-02-08T03:47:31;19.63;;;4.60;;
31728;SDS011;18309;43.658;1.312;2023-02-08T03:50:03;15.88;;;4.57;;
31728;SDS011;18309;43.658;1.312;2023-02-08T03:52:32;12.05;;;3.35;;
31728;SDS011;18309;43.658;1.312;2023-02-08T03:57:34;21.98;;;5.40;;
31728;SDS011;18309;43.658;1.312;2023-02-08T04:00:09;21.20;;;5.25;;
31728;SDS011;18309;43.658;1.312;2023-02-08T04:02:39;17.35;;;5.07;;
31728;SDS011;18309;43.658;1.312;2023-02-08T04:05:12;16.98;;;4.85;;
31728;SDS011;18309;43.658;1.312;2023-02-08T04:07:38;15.88;;;4.63;;
31728;SDS011;18309;43.658;1.312;2023-02-08T04:10:03;13.88;;;4.68;;
31728;SDS011;18309;43.658;1.312;2023-02-08T04:12:29;19.83;;;4.72;;
31728;SDS011;18309;43.658;1.312;2023-02-08T04:14:55;11.73;;;4.50;;
31728;SDS011;18309;43.658;1.312;2023-02-08T04:17:21;16.80;;;5.57;;
31728;SDS011;18309;43.658;1.312;2023-02-08T04:19:47;14.50;;;3.97;;
31728;SDS011;18309;43.658;1.312;2023-02-08T04:22:12;11.88;;;4.30;;
31728;SDS011;18309;43.658;1.312;2023-02-08T04:24:38;14.95;;;4.13;;
31728;SDS011;18309;43.658;1.312;2023-02-08T04:27:05;18.35;;;4.28;;
31728;SDS011;18309;43.658;1.312;2023-02-08T04:29:30;12.25;;;5.00;;
31728;SDS011;18309;43.658;1.312;2023-02-08T04:31:56;13.95;;;4.57;;
31728;SDS011;18309;43.658;1.312;2023-02-08T04:34:22;12.90;;;5.20;;
31728;SDS011;18309;43.658;1.312;2023-02-08T04:36:47;14.38;;;5.07;;
31728;SDS011;18309;43.658;1.312;2023-02-08T04:39:13;14.85;;;4.63;;
31728;SDS011;18309;43.658;1.312;2023-02-08T04:41:39;15.88;;;4.82;;
31728;SDS011;18309;43.658;1.312;2023-02-08T04:44:04;21.20;;;5.35;;
31728;SDS011;18309;43.658;1.312;2023-02-08T04:46:30;15.32;;;4.53;;
31728;SDS011;18309;43.658;1.312;2023-02-08T04:48:56;15.27;;;4.40;;
31728;SDS011;18309;43.658;1.312;2023-02-08T04:51:21;11.63;;;4.22;;
31728;SDS011;18309;43.658;1.312;2023-02-08T04:53:47;19.58;;;5.45;;
31728;SDS011;18309;43.658;1.312;2023-02-08T04:56:13;16.45;;;5.25;;
31728;SDS011;18309;43.658;1.312;2023-02-08T04:58:39;15.05;;;4.50;;
31728;SDS011;18309;43.658;1.312;2023-02-08T05:01:05;9.60;;;4.18;;
31728;SDS011;18309;43.658;1.312;2023-02-08T05:03:32;18.33;;;5.22;;
31728;SDS011;18309;43.658;1.312;2023-02-08T05:05:58;12.70;;;4.30;;
31728;SDS011;18309;43.658;1.312;2023-02-08T05:08:24;11.80;;;4.45;;
31728;SDS011;18309;43.658;1.312;2023-02-08T05:10:50;11.98;;;4.40;;
31728;SDS011;18309;43.658;1.312;2023-02-08T05:13:16;11.00;;;4.63;;
31728;SDS011;18309;43.658;1.312;2023-02-08T05:15:42;14.35;;;5.53;;
31728;SDS011;18309;43.658;1.312;2023-02-08T05:18:08;18.33;;;5.18;;
31728;SDS011;18309;43.658;1.312;2023-02-08T05:20:34;15.68;;;5.10;;
31728;SDS011;18309;43.658;1.312;2023-02-08T05:22:59;13.85;;;4.88;;
31728;SDS011;18309;43.658;1.312;2023-02-08T05:25:25;13.48;;;5.10;;
31728;SDS011;18309;43.658;1.312;2023-02-08T05:27:51;15.48;;;5.35;;
31728;SDS011;18309;43.658;1.312;2023-02-08T05:30:17;17.25;;;5.00;;
31728;SDS011;18309;43.658;1.312;2023-02-08T05:32:42;16.58;;;5.57;;
31728;SDS011;18309;43.658;1.312;2023-02-08T05:35:08;15.45;;;5.43;;
31728;SDS011;18309;43.658;1.312;2023-02-08T05:37:34;17.45;;;5.57;;
31728;SDS011;18309;43.658;1.312;2023-02-08T05:40:00;13.60;;;6.22;;
31728;SDS011;18309;43.658;1.312;2023-02-08T05:42:25;17.92;;;5.28;;
31728;SDS011;18309;43.658;1.312;2023-02-08T05:44:51;14.80;;;5.47;;
31728;SDS011;18309;43.658;1.312;2023-02-08T05:47:17;18.42;;;5.30;;
31728;SDS011;18309;43.658;1.312;2023-02-08T05:49:43;16.90;;;5.75;;
31728;SDS011;18309;43.658;1.312;2023-02-08T05:52:08;15.60;;;5.63;;
31728;SDS011;18309;43.658;1.312;2023-02-08T05:54:34;16.90;;;5.97;;
31728;SDS011;18309;43.658;1.312;2023-02-08T05:57:00;21.10;;;5.10;;
31728;SDS011;18309;43.658;1.312;2023-02-08T05:59:26;12.23;;;5.75;;
31728;SDS011;18309;43.658;1.312;2023-02-08T06:01:51;19.73;;;5.45;;
31728;SDS011;18309;43.658;1.312;2023-02-08T06:04:17;19.95;;;5.50;;
31728;SDS011;18309;43.658;1.312;2023-02-08T06:06:43;11.85;;;6.13;;
31728;SDS011;18309;43.658;1.312;2023-02-08T06:09:08;19.65;;;5.72;;
31728;SDS011;18309;43.658;1.312;2023-02-08T06:11:34;20.80;;;5.90;;
31728;SDS011;18309;43.658;1.312;2023-02-08T06:14:00;20.17;;;6.68;;
31728;SDS011;18309;43.658;1.312;2023-02-08T06:16:27;15.85;;;5.50;;
31728;SDS011;18309;43.658;1.312;2023-02-08T06:18:53;12.38;;;5.45;;
31728;SDS011;18309;43.658;1.312;2023-02-08T06:21:19;20.35;;;6.05;;
31728;SDS011;18309;43.658;1.312;2023-02-08T06:23:44;21.45;;;6.43;;
31728;SDS011;18309;43.658;1.312;2023-02-08T06:26:10;23.63;;;7.00;;
31728;SDS011;18309;43.658;1.312;2023-02-08T06:28:36;12.93;;;5.75;;
31728;SDS011;18309;43.658;1.312;2023-02-08T06:31:02;18.40;;;6.28;;
31728;SDS011;18309;43.658;1.312;2023-02-08T06:33:28;18.80;;;6.38;;
31728;SDS011;18309;43.658;1.312;2023-02-08T06:35:54;16.13;;;6.40;;
31728;SDS011;18309;43.658;1.312;2023-02-08T06:38:20;16.90;;;5.85;;
31728;SDS011;18309;43.658;1.312;2023-02-08T06:40:46;18.83;;;6.45;;
31728;SDS011;18309;43.658;1.312;2023-02-08T06:43:12;16.95;;;6.45;;
31728;SDS011;18309;43.658;1.312;2023-02-08T06:45:38;17.00;;;6.65;;
31728;SDS011;18309;43.658;1.312;2023-02-08T06:48:04;18.67;;;6.25;;
31728;SDS011;18309;43.658;1.312;2023-02-08T06:50:30;11.85;;;5.85;;
31728;SDS011;18309;43.658;1.312;2023-02-08T06:52:56;15.05;;;6.25;;
31728;SDS011;18309;43.658;1.312;2023-02-08T06:55:22;13.98;;;6.43;;
31728;SDS011;18309;43.658;1.312;2023-02-08T06:57:47;26.30;;;6.78;;
31728;SDS011;18309;43.658;1.312;2023-02-08T07:00:13;14.32;;;6.15;;
31728;SDS011;18309;43.658;1.312;2023-02-08T07:02:39;18.90;;;6.13;;
31728;SDS011;18309;43.658;1.312;2023-02-08T07:05:05;15.68;;;6.55;;
31728;SDS011;18309;43.658;1.312;2023-02-08T07:07:31;17.77;;;6.70;;
31728;SDS011;18309;43.658;1.312;2023-02-08T07:09:56;17.08;;;7.18;;
31728;SDS011;18309;43.658;1.312;2023-02-08T07:12:22;19.77;;;7.18;;
31728;SDS011;18309;43.658;1.312;2023-02-08T07:14:48;24.30;;;8.27;;
31728;SDS011;18309;43.658;1.312;2023-02-08T07:17:14;16.75;;;6.85;;
31728;SDS011;18309;43.658;1.312;2023-02-08T07:19:39;20.80;;;7.07;;
31728;SDS011;18309;43.658;1.312;2023-02-08T07:22:05;20.05;;;7.32;;
31728;SDS011;18309;43.658;1.312;2023-02-08T07:24:35;19.80;;;7.95;;
31728;SDS011;18309;43.658;1.312;2023-02-08T07:27:02;21.02;;;7.97;;
31728;SDS011;18309;43.658;1.312;2023-02-08T07:29:29;18.83;;;7.47;;
31728;SDS011;18309;43.658;1.312;2023-02-08T07:31:57;15.30;;;6.90;;
31728;SDS011;18309;43.658;1.312;2023-02-08T07:34:23;17.52;;;8.10;;
31728;SDS011;18309;43.658;1.312;2023-02-08T07:36:50;23.05;;;9.30;;
31728;SDS011;18309;43.658;1.312;2023-02-08T07:39:15;22.00;;;8.93;;
31728;SDS011;18309;43.658;1.312;2023-02-08T07:41:41;19.33;;;9.02;;
31728;SDS011;18309;43.658;1.312;2023-02-08T07:44:08;16.13;;;7.90;;
31728;SDS011;18309;43.658;1.312;2023-02-08T07:46:33;22.60;;;8.93;;
31728;SDS011;18309;43.658;1.312;2023-02-08T07:48:59;24.35;;;9.00;;
31728;SDS011;18309;43.658;1.312;2023-02-08T07:51:25;24.70;;;9.10;;
31728;SDS011;18309;43.658;1.312;2023-02-08T07:53:50;19.80;;;7.57;;
31728;SDS011;18309;43.658;1.312;2023-02-08T07:56:16;21.75;;;9.75;;
31728;SDS011;18309;43.658;1.312;2023-02-08T07:58:42;23.77;;;9.43;;
31728;SDS011;18309;43.658;1.312;2023-02-08T08:01:08;21.38;;;8.27;;
31728;SDS011;18309;43.658;1.312;2023-02-08T08:03:34;28.50;;;8.90;;
31728;SDS011;18309;43.658;1.312;2023-02-08T08:06:00;23.65;;;9.52;;
31728;SDS011;18309;43.658;1.312;2023-02-08T08:08:26;30.73;;;9.50;;
31728;SDS011;18309;43.658;1.312;2023-02-08T08:10:51;26.23;;;9.13;;
31728;SDS011;18309;43.658;1.312;2023-02-08T08:13:17;24.40;;;9.52;;
31728;SDS011;18309;43.658;1.312;2023-02-08T08:15:43;28.80;;;11.02;;
31728;SDS011;18309;43.658;1.312;2023-02-08T08:18:08;21.70;;;9.70;;
31728;SDS011;18309;43.658;1.312;2023-02-08T08:20:34;23.90;;;9.43;;
31728;SDS011;18309;43.658;1.312;2023-02-08T08:23:00;26.58;;;9.57;;
31728;SDS011;18309;43.658;1.312;2023-02-08T08:25:26;25.48;;;10.13;;
31728;SDS011;18309;43.658;1.312;2023-02-08T08:27:52;33.58;;;10.52;;
31728;SDS011;18309;43.658;1.312;2023-02-08T08:30:19;25.25;;;9.93;;
31728;SDS011;18309;43.658;1.312;2023-02-08T08:32:45;28.27;;;10.38;;
31728;SDS011;18309;43.658;1.312;2023-02-08T08:35:11;24.85;;;10.35;;
31728;SDS011;18309;43.658;1.312;2023-02-08T08:37:37;29.20;;;10.75;;
31728;SDS011;18309;43.658;1.312;2023-02-08T08:40:03;27.27;;;10.77;;
31728;SDS011;18309;43.658;1.312;2023-02-08T08:42:31;27.75;;;10.50;;
31728;SDS011;18309;43.658;1.312;2023-02-08T08:44:57;23.73;;;10.43;;
31728;SDS011;18309;43.658;1.312;2023-02-08T08:47:23;26.58;;;11.05;;
31728;SDS011;18309;43.658;1.312;2023-02-08T08:49:49;32.17;;;11.57;;
31728;SDS011;18309;43.658;1.312;2023-02-08T08:52:15;25.98;;;10.93;;
31728;SDS011;18309;43.658;1.312;2023-02-08T08:54:40;27.70;;;10.18;;
31728;SDS011;18309;43.658;1.312;2023-02-08T08:57:06;22.30;;;9.60;;
31728;SDS011;18309;43.658;1.312;2023-02-08T08:59:32;23.67;;;10.30;;
31728;SDS011;18309;43.658;1.312;2023-02-08T09:01:58;27.25;;;9.65;;
31728;SDS011;18309;43.658;1.312;2023-02-08T09:04:24;20.55;;;9.02;;
31728;SDS011;18309;43.658;1.312;2023-02-08T09:06:50;19.38;;;8.90;;
31728;SDS011;18309;43.658;1.312;2023-02-08T09:09:17;22.92;;;9.13;;
31728;SDS011;18309;43.658;1.312;2023-02-08T09:11:44;21.35;;;8.68;;
31728;SDS011;18309;43.658;1.312;2023-02-08T09:14:10;25.13;;;9.80;;
31728;SDS011;18309;43.658;1.312;2023-02-08T09:16:36;20.60;;;9.55;;
31728;SDS011;18309;43.658;1.312;2023-02-08T09:19:04;26.45;;;10.30;;
31728;SDS011;18309;43.658;1.312;2023-02-08T09:21:31;24.02;;;9.98;;
31728;SDS011;18309;43.658;1.312;2023-02-08T09:23:59;21.30;;;8.63;;
31728;SDS011;18309;43.658;1.312;2023-02-08T09:26:25;23.73;;;8.95;;
31728;SDS011;18309;43.658;1.312;2023-02-08T09:28:51;21.77;;;9.60;;
31728;SDS011;18309;43.658;1.312;2023-02-08T09:33:45;23.95;;;9.73;;
31728;SDS011;18309;43.658;1.312;2023-02-08T09:36:11;25.40;;;9.75;;
31728;SDS011;18309;43.658;1.312;2023-02-08T09:38:37;20.00;;;9.45;;
31728;SDS011;18309;43.658;1.312;2023-02-08T09:43:46;23.92;;;8.48;;
31728;SDS011;18309;43.658;1.312;2023-02-08T09:46:32;25.25;;;9.55;;
31728;SDS011;18309;43.658;1.312;2023-02-08T09:49:03;25.33;;;9.40;;
31728;SDS011;18309;43.658;1.312;2023-02-08T09:51:42;25.70;;;9.63;;
31728;SDS011;18309;43.658;1.312;2023-02-08T09:54:21;33.35;;;9.48;;
31728;SDS011;18309;43.658;1.312;2023-02-08T09:57:10;29.55;;;9.25;;
31728;SDS011;18309;43.658;1.312;2023-02-08T09:59:42;32.35;;;9.73;;
31728;SDS011;18309;43.658;1.312;2023-02-08T10:02:41;27.35;;;10.45;;
31728;SDS011;18309;43.658;1.312;2023-02-08T10:05:16;25.20;;;9.05;;
31728;SDS011;18309;43.658;1.312;2023-02-08T10:07:46;22.92;;;8.93;;
31728;SDS011;18309;43.658;1.312;2023-02-08T10:26:46;24.17;;;9.65;;
31728;SDS011;18309;43.658;1.312;2023-02-08T10:32:06;31.88;;;10.00;;
31728;SDS011;18309;43.658;1.312;2023-02-08T10:35:01;25.17;;;9.50;;
31728;SDS011;18309;43.658;1.312;2023-02-08T10:37:40;23.63;;;9.30;;
31728;SDS011;18309;43.658;1.312;2023-02-08T10:43:16;26.38;;;10.07;;
31728;SDS011;18309;43.658;1.312;2023-02-08T10:51:35;20.52;;;9.05;;
31728;SDS011;18309;43.658;1.312;2023-02-08T10:54:01;17.55;;;8.75;;
31728;SDS011;18309;43.658;1.312;2023-02-08T10:56:43;27.33;;;9.60;;
31728;SDS011;18309;43.658;1.312;2023-02-08T10:59:29;21.58;;;8.82;;
31728;SDS011;18309;43.658;1.312;2023-02-08T11:02:20;29.13;;;9.95;;
31728;SDS011;18309;43.658;1.312;2023-02-08T11:05:07;23.33;;;10.38;;
31728;SDS011;18309;43.658;1.312;2023-02-08T11:07:36;21.58;;;7.95;;
31728;SDS011;18309;43.658;1.312;2023-02-08T11:10:13;21.52;;;8.63;;
31728;SDS011;18309;43.658;1.312;2023-02-08T11:12:42;20.40;;;8.85;;
31728;SDS011;18309;43.658;1.312;2023-02-08T11:15:24;25.90;;;9.43;;
31728;SDS011;18309;43.658;1.312;2023-02-08T11:17:53;22.53;;;9.20;;
31728;SDS011;18309;43.658;1.312;2023-02-08T11:20:29;24.35;;;8.77;;
31728;SDS011;18309;43.658;1.312;2023-02-08T11:22:58;27.42;;;10.48;;
31728;SDS011;18309;43.658;1.312;2023-02-08T11:25:32;23.08;;;9.32;;
31728;SDS011;18309;43.658;1.312;2023-02-08T11:28:00;28.58;;;9.50;;
31728;SDS011;18309;43.658;1.312;2023-02-08T11:30:26;21.20;;;9.20;;
31728;SDS011;18309;43.658;1.312;2023-02-08T11:36:27;31.58;;;9.82;;
31728;SDS011;18309;43.658;1.312;2023-02-08T11:38:45;21.20;;;8.70;;
31728;SDS011;18309;43.658;1.312;2023-02-08T11:41:15;22.38;;;8.55;;
31728;SDS011;18309;43.658;1.312;2023-02-08T11:43:43;21.13;;;8.98;;
31728;SDS011;18309;43.658;1.312;2023-02-08T11:46:27;25.92;;;8.88;;
31728;SDS011;18309;43.658;1.312;2023-02-08T11:48:55;22.00;;;8.52;;
31728;SDS011;18309;43.658;1.312;2023-02-08T11:53:58;21.70;;;7.75;;
31728;SDS011;18309;43.658;1.312;2023-02-08T11:56:26;20.23;;;7.97;;
31728;SDS011;18309;43.658;1.312;2023-02-08T12:01:29;19.05;;;8.13;;
31728;SDS011;18309;43.658;1.312;2023-02-08T12:04:00;20.52;;;8.20;;
31728;SDS011;18309;43.658;1.312;2023-02-08T12:25:38;17.58;;;5.55;;
31728;SDS011;18309;43.658;1.312;2023-02-08T12:28:15;18.60;;;5.07;;
31728;SDS011;18309;43.658;1.312;2023-02-08T12:31:26;19.55;;;5.50;;
31728;SDS011;18309;43.658;1.312;2023-02-08T12:42:46;11.35;;;3.85;;
31728;SDS011;18309;43.658;1.312;2023-02-08T12:53:24;8.60;;;4.50;;
31728;SDS011;18309;43.658;1.312;2023-02-08T12:55:57;14.55;;;4.85;;
31728;SDS011;18309;43.658;1.312;2023-02-08T12:58:30;14.05;;;5.15;;
31728;SDS011;18309;43.658;1.312;2023-02-08T13:01:32;11.07;;;5.57;;
31728;SDS011;18309;43.658;1.312;2023-02-08T13:04:11;16.73;;;6.00;;
31728;SDS011;18309;43.658;1.312;2023-02-08T13:06:40;12.35;;;5.65;;
31728;SDS011;18309;43.658;1.312;2023-02-08T13:09:28;16.98;;;5.72;;
31728;SDS011;18309;43.658;1.312;2023-02-08T13:12:14;11.90;;;4.88;;
31728;SDS011;18309;43.658;1.312;2023-02-08T13:14:57;15.98;;;5.32;;
31728;SDS011;18309;43.658;1.312;2023-02-08T13:23:02;10.93;;;3.28;;
31728;SDS011;18309;43.658;1.312;2023-02-08T13:25:36;14.35;;;3.17;;
31728;SDS011;18309;43.658;1.312;2023-02-08T13:28:03;11.02;;;3.42;;
31728;SDS011;18309;43.658;1.312;2023-02-08T13:30:30;8.30;;;3.35;;
31728;SDS011;18309;43.658;1.312;2023-02-08T13:32:59;12.57;;;3.58;;
31728;SDS011;18309;43.658;1.312;2023-02-08T13:35:40;7.35;;;2.80;;
31728;SDS011;18309;43.658;1.312;2023-02-08T13:38:15;13.10;;;3.67;;
31728;SDS011;18309;43.658;1.312;2023-02-08T13:41:03;9.52;;;2.95;;
31728;SDS011;18309;43.658;1.312;2023-02-08T13:43:40;14.00;;;3.58;;
31728;SDS011;18309;43.658;1.312;2023-02-08T13:46:12;8.38;;;3.25;;
31728;SDS011;18309;43.658;1.312;2023-02-08T13:48:44;9.82;;;3.13;;
31728;SDS011;18309;43.658;1.312;2023-02-08T13:59:29;9.10;;;3.70;;
31728;SDS011;18309;43.658;1.312;2023-02-08T14:17:44;14.80;;;3.08;;
31728;SDS011;18309;43.658;1.312;2023-02-08T14:20:18;11.57;;;3.00;;
31728;SDS011;18309;43.658;1.312;2023-02-08T14:22:51;10.65;;;3.50;;
31728;SDS011;18309;43.658;1.312;2023-02-08T14:25:24;15.57;;;3.70;;
31728;SDS011;18309;43.658;1.312;2023-02-08T14:32:47;11.70;;;3.25;;
31728;SDS011;18309;43.658;1.312;2023-02-08T14:37:40;15.85;;;3.88;;
31728;SDS011;18309;43.658;1.312;2023-02-08T14:45:32;14.02;;;3.42;;
31728;SDS011;18309;43.658;1.312;2023-02-08T14:48:00;10.18;;;3.45;;
31728;SDS011;18309;43.658;1.312;2023-02-08T14:50:54;17.10;;;3.80;;
31728;SDS011;18309;43.658;1.312;2023-02-08T14:53:32;12.75;;;3.42;;
31728;SDS011;18309;43.658;1.312;2023-02-08T14:56:13;11.63;;;3.60;;
31728;SDS011;18309;43.658;1.312;2023-02-08T14:59:04;17.50;;;3.50;;
31728;SDS011;18309;43.658;1.312;2023-02-08T15:04:01;11.40;;;3.40;;
31728;SDS011;18309;43.658;1.312;2023-02-08T15:09:11;12.50;;;3.50;;
31728;SDS011;18309;43.658;1.312;2023-02-08T15:11:38;13.75;;;3.13;;
31728;SDS011;18309;43.658;1.312;2023-02-08T15:14:05;15.05;;;3.78;;
31728;SDS011;18309;43.658;1.312;2023-02-08T15:16:32;10.50;;;3.92;;
31728;SDS011;18309;43.658;1.312;2023-02-08T15:19:08;24.25;;;3.95;;
31728;SDS011;18309;43.658;1.312;2023-02-08T15:21:44;13.35;;;3.35;;
31728;SDS011;18309;43.658;1.312;2023-02-08T15:24:13;12.88;;;2.92;;
31728;SDS011;18309;43.658;1.312;2023-02-08T15:26:45;17.80;;;3.60;;
31728;SDS011;18309;43.658;1.312;2023-02-08T15:29:17;22.67;;;3.78;;
31728;SDS011;18309;43.658;1.312;2023-02-08T15:31:47;20.20;;;3.88;;
31728;SDS011;18309;43.658;1.312;2023-02-08T15:34:14;8.55;;;2.88;;
31728;SDS011;18309;43.658;1.312;2023-02-08T15:36:44;14.82;;;2.90;;
31728;SDS011;18309;43.658;1.312;2023-02-08T15:39:32;10.23;;;2.47;;
31728;SDS011;18309;43.658;1.312;2023-02-08T15:42:03;11.85;;;2.45;;
31728;SDS011;18309;43.658;1.312;2023-02-08T15:44:30;11.63;;;3.05;;
31728;SDS011;18309;43.658;1.312;2023-02-08T15:47:01;15.35;;;3.08;;
31728;SDS011;18309;43.658;1.312;2023-02-08T15:49:36;14.32;;;3.35;;
31728;SDS011;18309;43.658;1.312;2023-02-08T15:52:06;13.70;;;3.38;;
31728;SDS011;18309;43.658;1.312;2023-02-08T15:54:39;14.90;;;3.30;;
31728;SDS011;18309;43.658;1.312;2023-02-08T15:57:06;10.77;;;3.50;;
31728;SDS011;18309;43.658;1.312;2023-02-08T15:59:42;14.98;;;3.65;;
31728;SDS011;18309;43.658;1.312;2023-02-08T16:04:53;10.82;;;2.70;;
31728;SDS011;18309;43.658;1.312;2023-02-08T16:10:34;14.63;;;3.60;;
31728;SDS011;18309;43.658;1.312;2023-02-08T16:13:15;24.75;;;3.85;;
31728;SDS011;18309;43.658;1.312;2023-02-08T16:15:51;13.02;;;4.35;;
31728;SDS011;18309;43.658;1.312;2023-02-08T16:29:18;10.93;;;3.33;;
31728;SDS011;18309;43.658;1.312;2023-02-08T16:31:55;17.00;;;4.22;;
31728;SDS011;18309;43.658;1.312;2023-02-08T16:34:33;14.50;;;2.97;;
31728;SDS011;18309;43.658;1.312;2023-02-08T16:37:02;13.40;;;3.03;;
31728;SDS011;18309;43.658;1.312;2023-02-08T16:39:34;11.13;;;2.72;;
31728;SDS011;18309;43.658;1.312;2023-02-08T16:42:04;18.08;;;3.50;;
31728;SDS011;18309;43.658;1.312;2023-02-08T16:45:29;14.43;;;3.10;;
31728;SDS011;18309;43.658;1.312;2023-02-08T16:47:41;18.13;;;4.32;;
31728;SDS011;18309;43.658;1.312;2023-02-08T16:50:08;13.43;;;3.55;;
31728;SDS011;18309;43.658;1.312;2023-02-08T16:52:36;13.07;;;3.60;;
31728;SDS011;18309;43.658;1.312;2023-02-08T16:55:02;16.48;;;3.38;;
31728;SDS011;18309;43.658;1.312;2023-02-08T16:57:39;14.73;;;3.53;;
31728;SDS011;18309;43.658;1.312;2023-02-08T17:00:28;21.25;;;3.63;;
31728;SDS011;18309;43.658;1.312;2023-02-08T17:05:26;17.67;;;4.10;;
31728;SDS011;18309;43.658;1.312;2023-02-08T17:07:59;19.95;;;3.85;;
31728;SDS011;18309;43.658;1.312;2023-02-08T17:10:26;21.92;;;4.53;;
31728;SDS011;18309;43.658;1.312;2023-02-08T17:12:53;19.45;;;5.18;;
31728;SDS011;18309;43.658;1.312;2023-02-08T17:15:18;17.58;;;4.25;;
31728;SDS011;18309;43.658;1.312;2023-02-08T17:17:49;15.07;;;3.58;;
31728;SDS011;18309;43.658;1.312;2023-02-08T17:22:49;10.30;;;3.50;;
31728;SDS011;18309;43.658;1.312;2023-02-08T17:25:15;13.65;;;3.83;;
31728;SDS011;18309;43.658;1.312;2023-02-08T17:27:52;27.27;;;4.28;;
31728;SDS011;18309;43.658;1.312;2023-02-08T17:30:24;19.38;;;4.68;;
31728;SDS011;18309;43.658;1.312;2023-02-08T17:32:57;16.80;;;4.75;;
31728;SDS011;18309;43.658;1.312;2023-02-08T17:35:26;29.50;;;5.88;;
31728;SDS011;18309;43.658;1.312;2023-02-08T17:37:53;20.83;;;5.43;;
31728;SDS011;18309;43.658;1.312;2023-02-08T17:40:21;17.27;;;4.70;;
31728;SDS011;18309;43.658;1.312;2023-02-08T17:42:53;20.80;;;4.28;;
31728;SDS011;18309;43.658;1.312;2023-02-08T17:45:19;25.52;;;6.22;;
31728;SDS011;18309;43.658;1.312;2023-02-08T17:47:45;17.45;;;4.32;;
31728;SDS011;18309;43.658;1.312;2023-02-08T17:50:12;21.00;;;4.68;;
31728;SDS011;18309;43.658;1.312;2023-02-08T17:52:39;16.95;;;5.43;;
31728;SDS011;18309;43.658;1.312;2023-02-08T17:55:06;20.25;;;4.15;;
31728;SDS011;18309;43.658;1.312;2023-02-08T17:57:34;14.68;;;4.45;;
31728;SDS011;18309;43.658;1.312;2023-02-08T18:00:03;17.52;;;4.60;;
31728;SDS011;18309;43.658;1.312;2023-02-08T18:02:29;17.13;;;3.92;;
31728;SDS011;18309;43.658;1.312;2023-02-08T18:04:55;17.60;;;4.70;;
31728;SDS011;18309;43.658;1.312;2023-02-08T18:07:21;37.38;;;7.25;;
31728;SDS011;18309;43.658;1.312;2023-02-08T18:09:47;27.75;;;5.90;;
31728;SDS011;18309;43.658;1.312;2023-02-08T18:12:12;11.80;;;4.18;;
31728;SDS011;18309;43.658;1.312;2023-02-08T18:14:39;23.20;;;6.88;;
31728;SDS011;18309;43.658;1.312;2023-02-08T18:17:04;31.42;;;9.02;;
31728;SDS011;18309;43.658;1.312;2023-02-08T18:19:30;24.95;;;6.70;;
31728;SDS011;18309;43.658;1.312;2023-02-08T18:22:00;27.73;;;8.32;;
31728;SDS011;18309;43.658;1.312;2023-02-08T18:26:57;29.48;;;7.53;;
31728;SDS011;18309;43.658;1.312;2023-02-08T18:29:23;30.70;;;7.47;;
31728;SDS011;18309;43.658;1.312;2023-02-08T18:31:49;21.95;;;7.72;;